createdAt,value
2017-09-29T00:00:35.835Z,11.55
2017-09-29T00:03:03.391Z,12.32
2017-09-29T00:05:30.941Z,11.50
2017-09-29T00:07:58.498Z,11.82
2017-09-29T00:10:26.062Z,13.25
2017-09-29T00:12:53.622Z,12.00
2017-09-29T00:15:21.089Z,12.05
2017-09-29T00:17:48.638Z,11.98
2017-09-29T00:20:16.104Z,12.18
2017-09-29T00:22:43.562Z,11.85
2017-09-29T00:25:11.017Z,12.05
2017-09-29T00:27:38.469Z,11.23
2017-09-29T00:30:06.022Z,11.07
2017-09-29T00:32:33.489Z,11.68
2017-09-29T00:35:00.942Z,12.02
2017-09-29T00:37:28.498Z,11.02
2017-09-29T00:39:56.058Z,11.32
2017-09-29T00:42:23.513Z,11.65
2017-09-29T00:44:51.087Z,12.13
2017-09-29T00:47:18.543Z,13.82
2017-09-29T00:49:46.086Z,12.02
2017-09-29T00:52:13.651Z,11.40
2017-09-29T00:54:41.214Z,11.60
2017-09-29T00:57:08.772Z,10.93
2017-09-29T00:59:36.239Z,11.75
2017-09-29T01:02:03.747Z,10.32
2017-09-29T01:04:31.214Z,10.30
2017-09-29T01:06:58.703Z,11.07
2017-09-29T01:09:26.163Z,11.02
2017-09-29T01:11:53.715Z,10.30
2017-09-29T01:14:21.179Z,10.38
2017-09-29T01:16:48.635Z,10.27
2017-09-29T01:19:16.090Z,9.85
2017-09-29T01:21:43.551Z,11.40
2017-09-29T01:24:11.037Z,10.88
2017-09-29T01:26:39.261Z,10.45
2017-09-29T01:29:06.726Z,12.25
2017-09-29T01:31:34.256Z,11.77
2017-09-29T01:34:01.752Z,11.15
2017-09-29T01:36:29.209Z,11.60
2017-09-29T01:38:56.666Z,11.07
2017-09-29T01:41:24.129Z,11.90
2017-09-29T01:43:51.591Z,11.30
2017-09-29T01:46:19.142Z,10.68
2017-09-29T01:48:46.600Z,11.20
2017-09-29T01:51:14.155Z,12.10
2017-09-29T01:53:41.611Z,11.80
2017-09-29T01:56:09.069Z,12.43
2017-09-29T01:58:36.529Z,12.68
2017-09-29T02:01:04.095Z,13.10
2017-09-29T02:03:32.369Z,11.38
2017-09-29T02:05:59.921Z,13.20
2017-09-29T02:08:27.478Z,12.10
2017-09-29T02:10:54.933Z,12.88
2017-09-29T02:13:22.394Z,12.15
2017-09-29T02:15:49.849Z,12.52
2017-09-29T02:18:17.328Z,11.80
2017-09-29T02:20:46.285Z,13.45
2017-09-29T02:23:13.749Z,11.98
2017-09-29T02:25:41.285Z,12.50
2017-09-29T02:28:08.739Z,11.52
2017-09-29T02:30:36.238Z,12.82
2017-09-29T02:33:03.704Z,11.85
2017-09-29T02:35:31.162Z,10.63
2017-09-29T02:37:58.625Z,10.73
2017-09-29T02:40:26.162Z,12.20
2017-09-29T02:42:53.627Z,11.38
2017-09-29T02:45:21.096Z,10.80
2017-09-29T02:47:48.559Z,11.57
2017-09-29T02:50:16.107Z,10.77
2017-09-29T02:52:43.567Z,10.50
2017-09-29T02:55:11.118Z,10.90
2017-09-29T02:57:41.030Z,10.35
2017-09-29T03:00:09.471Z,10.40
2017-09-29T03:02:38.495Z,11.05
2017-09-29T03:05:08.310Z,10.43
2017-09-29T03:07:35.870Z,10.10
2017-09-29T03:10:03.334Z,10.48
2017-09-29T03:12:30.790Z,10.55
2017-09-29T03:14:58.246Z,9.65
2017-09-29T03:17:25.810Z,10.13
2017-09-29T03:19:53.290Z,9.70
2017-09-29T03:22:20.747Z,10.50
2017-09-29T03:24:48.975Z,10.10
2017-09-29T03:27:16.424Z,10.23
2017-09-29T03:29:43.910Z,9.75
2017-09-29T03:32:11.366Z,10.30
2017-09-29T03:34:38.825Z,10.40
2017-09-29T03:37:06.278Z,10.25
2017-09-29T03:39:33.739Z,9.73
2017-09-29T03:42:01.202Z,9.38
2017-09-29T03:44:28.670Z,10.63
2017-09-29T03:46:56.214Z,10.52
2017-09-29T03:49:23.799Z,10.73
2017-09-29T03:51:53.513Z,11.07
2017-09-29T03:54:22.507Z,10.35
2017-09-29T03:56:51.402Z,10.32
2017-09-29T03:59:21.442Z,12.18
2017-09-29T04:01:48.941Z,10.77
2017-09-29T04:04:16.400Z,11.88
2017-09-29T04:06:43.885Z,12.00
2017-09-29T04:09:12.105Z,11.30
2017-09-29T04:11:39.602Z,10.88
2017-09-29T04:14:07.062Z,11.27
2017-09-29T04:16:34.524Z,11.02
2017-09-29T04:19:02.075Z,10.55
2017-09-29T04:21:29.592Z,11.63
2017-09-29T04:23:57.037Z,12.20
2017-09-29T04:26:24.492Z,10.30
2017-09-29T04:28:51.940Z,11.05
2017-09-29T04:31:20.165Z,18.10
2017-09-29T04:33:47.637Z,11.18
2017-09-29T04:36:15.090Z,10.55
2017-09-29T04:38:42.546Z,10.48
2017-09-29T04:41:10.179Z,11.55
2017-09-29T04:43:37.622Z,11.05
2017-09-29T04:46:05.094Z,10.63
2017-09-29T04:48:32.711Z,10.13
2017-09-29T04:51:01.177Z,10.63
2017-09-29T04:53:28.731Z,11.35
2017-09-29T04:55:57.003Z,11.00
2017-09-29T04:58:24.459Z,10.73
2017-09-29T05:00:52.030Z,10.70
2017-09-29T05:03:19.577Z,11.55
2017-09-29T05:05:47.042Z,10.50
2017-09-29T05:08:14.507Z,11.10
2017-09-29T05:10:42.001Z,10.60
2017-09-29T05:13:09.538Z,9.57
2017-09-29T05:15:36.996Z,10.70
2017-09-29T05:18:06.038Z,10.77
2017-09-29T05:20:33.592Z,9.98
2017-09-29T05:23:01.050Z,10.75
2017-09-29T05:25:28.510Z,10.27
2017-09-29T05:27:56.129Z,9.75
2017-09-29T05:30:24.401Z,9.68
2017-09-29T05:32:52.630Z,9.45
2017-09-29T05:35:20.082Z,8.52
2017-09-29T05:37:47.576Z,9.18
2017-09-29T05:40:15.021Z,8.82
2017-09-29T05:42:42.489Z,8.07
2017-09-29T05:45:09.970Z,9.20
2017-09-29T05:47:38.217Z,8.00
2017-09-29T05:50:05.670Z,7.35
2017-09-29T05:52:33.232Z,8.80
2017-09-29T05:55:00.688Z,8.88
2017-09-29T05:57:28.246Z,7.65
2017-09-29T05:59:55.822Z,8.35
2017-09-29T06:02:23.275Z,8.15
2017-09-29T06:04:50.803Z,7.75
2017-09-29T06:07:18.249Z,8.52
2017-09-29T06:09:45.734Z,8.27
2017-09-29T06:12:13.189Z,8.30
2017-09-29T06:14:40.978Z,8.00
2017-09-29T06:17:09.242Z,8.70
2017-09-29T06:19:36.794Z,7.57
2017-09-29T06:22:04.351Z,7.05
2017-09-29T06:24:31.818Z,7.43
2017-09-29T06:26:59.275Z,7.55
2017-09-29T06:29:26.822Z,7.03
2017-09-29T06:31:54.293Z,7.20
2017-09-29T06:34:21.747Z,6.70
2017-09-29T06:36:49.206Z,6.87
2017-09-29T06:39:16.721Z,6.23
2017-09-29T06:41:44.220Z,6.53
2017-09-29T06:44:11.683Z,5.37
2017-09-29T06:46:39.138Z,6.50
2017-09-29T06:49:06.646Z,7.83
2017-09-29T06:51:34.096Z,7.10
2017-09-29T06:54:01.608Z,7.07
2017-09-29T06:56:29.164Z,6.27
2017-09-29T06:58:56.609Z,6.07
2017-09-29T07:01:24.065Z,6.17
2017-09-29T07:03:51.539Z,8.63
2017-09-29T07:06:19.019Z,5.80
2017-09-29T07:08:46.529Z,9.47
2017-09-29T07:11:14.012Z,10.47
2017-09-29T07:13:41.604Z,9.80
2017-09-29T07:16:09.891Z,6.53
2017-09-29T07:18:37.425Z,6.40
2017-09-29T07:21:05.679Z,6.23
2017-09-29T07:23:33.242Z,7.90
2017-09-29T07:26:05.093Z,7.60
2017-09-29T07:28:34.887Z,7.10
2017-09-29T07:31:04.159Z,5.80
2017-09-29T07:33:31.605Z,5.40
2017-09-29T07:35:59.865Z,4.80
2017-09-29T07:38:28.314Z,5.67
2017-09-29T07:40:55.899Z,5.00
2017-09-29T07:43:23.345Z,6.20
2017-09-29T07:45:50.814Z,6.40
2017-09-29T07:48:18.258Z,4.63
2017-09-29T07:50:45.804Z,5.63
2017-09-29T07:53:13.277Z,5.67
2017-09-29T07:55:40.725Z,4.60
2017-09-29T07:58:08.207Z,5.80
2017-09-29T08:00:35.658Z,7.40
2017-09-29T08:03:03.189Z,7.50
2017-09-29T08:05:30.643Z,4.77
2017-09-29T08:07:58.122Z,5.10
2017-09-29T08:10:25.662Z,5.60
2017-09-29T08:12:53.129Z,5.00
2017-09-29T08:15:20.693Z,4.40
2017-09-29T08:17:48.154Z,5.00
2017-09-29T08:20:15.629Z,5.90
2017-09-29T08:22:43.879Z,5.37
2017-09-29T08:25:11.346Z,5.37
2017-09-29T08:27:38.825Z,5.90
2017-09-29T08:30:07.074Z,6.50
2017-09-29T08:32:34.599Z,5.60
2017-09-29T08:35:02.052Z,6.93
2017-09-29T08:37:29.584Z,6.70
2017-09-29T08:39:57.826Z,7.40
2017-09-29T08:42:25.293Z,8.10
2017-09-29T08:44:52.753Z,7.27
2017-09-29T08:47:20.214Z,7.57
2017-09-29T08:49:47.674Z,7.73
2017-09-29T08:52:15.942Z,7.43
2017-09-29T08:54:43.406Z,6.93
2017-09-29T08:57:11.115Z,6.10
2017-09-29T08:59:38.574Z,6.07
2017-09-29T09:02:06.065Z,6.30
2017-09-29T09:04:33.525Z,5.80
2017-09-29T09:07:00.981Z,6.90
2017-09-29T09:09:28.447Z,6.20
2017-09-29T09:11:55.989Z,5.77
2017-09-29T09:14:23.454Z,5.90
2017-09-29T09:16:50.909Z,6.93
2017-09-29T09:19:18.369Z,6.30
2017-09-29T09:21:45.830Z,6.53
2017-09-29T09:24:13.325Z,6.10
2017-09-29T09:26:40.790Z,7.37
2017-09-29T09:29:08.283Z,6.70
2017-09-29T09:31:35.762Z,6.60
2017-09-29T09:34:03.223Z,6.90
2017-09-29T09:36:30.681Z,7.60
2017-09-29T09:38:58.263Z,7.23
2017-09-29T09:41:26.510Z,7.00
2017-09-29T09:43:53.981Z,8.80
2017-09-29T09:46:21.442Z,8.10
2017-09-29T09:48:48.898Z,7.80
2017-09-29T09:51:16.355Z,7.03
2017-09-29T09:53:43.812Z,7.70
2017-09-29T09:56:11.262Z,7.73
2017-09-29T09:58:38.812Z,7.90
2017-09-29T10:01:06.473Z,7.10
2017-09-29T10:03:35.434Z,7.17
2017-09-29T10:06:03.034Z,7.73
2017-09-29T10:08:30.498Z,7.47
2017-09-29T10:10:57.962Z,7.93
2017-09-29T10:13:26.217Z,7.97
2017-09-29T10:15:53.678Z,8.20
2017-09-29T10:18:21.134Z,7.70
2017-09-29T10:20:48.594Z,6.83
2017-09-29T10:23:17.586Z,7.23
2017-09-29T10:25:45.042Z,7.10
2017-09-29T10:28:12.509Z,7.40
2017-09-29T10:30:40.021Z,7.23
2017-09-29T10:33:07.463Z,7.00
2017-09-29T10:35:34.923Z,7.50
2017-09-29T10:38:02.433Z,8.27
2017-09-29T10:40:29.893Z,7.87
2017-09-29T10:42:57.354Z,7.53
2017-09-29T10:45:26.313Z,7.43
2017-09-29T10:47:53.789Z,7.37
2017-09-29T10:50:21.243Z,7.07
2017-09-29T10:52:48.814Z,7.43
2017-09-29T10:55:16.281Z,6.90
2017-09-29T10:57:44.641Z,7.77
2017-09-29T11:00:12.107Z,7.50
2017-09-29T11:02:41.089Z,7.50
2017-09-29T11:05:08.541Z,7.10
2017-09-29T11:07:36.006Z,7.43
2017-09-29T11:10:03.561Z,7.93
2017-09-29T11:12:31.043Z,7.40
2017-09-29T11:14:58.491Z,8.23
2017-09-29T11:17:26.033Z,7.20
2017-09-29T11:19:53.594Z,7.30
2017-09-29T11:22:21.050Z,6.33
2017-09-29T11:24:48.585Z,5.80
2017-09-29T11:27:16.042Z,6.77
2017-09-29T11:29:43.498Z,6.70
2017-09-29T11:32:11.006Z,7.03
2017-09-29T11:34:38.466Z,5.63
2017-09-29T11:37:05.926Z,6.50
2017-09-29T11:39:34.206Z,6.30
2017-09-29T11:42:02.426Z,5.50
2017-09-29T11:44:29.874Z,5.73
2017-09-29T11:46:57.365Z,5.83
2017-09-29T11:49:24.921Z,5.67
2017-09-29T11:51:52.383Z,6.40
2017-09-29T11:54:19.853Z,5.77
2017-09-29T11:56:47.298Z,5.40
2017-09-29T11:59:14.759Z,6.07
2017-09-29T12:01:42.229Z,6.20
2017-09-29T12:04:09.682Z,6.43
2017-09-29T12:06:37.141Z,7.80
2017-09-29T12:09:04.594Z,6.90
2017-09-29T12:11:33.561Z,8.37
2017-09-29T12:14:01.105Z,8.43
2017-09-29T12:16:28.595Z,8.23
2017-09-29T12:18:56.954Z,7.57
2017-09-29T12:21:24.402Z,6.90
2017-09-29T12:23:51.989Z,7.50
2017-09-29T12:26:19.549Z,10.63
2017-09-29T12:28:47.015Z,9.00
2017-09-29T12:31:14.574Z,11.67
2017-09-29T12:33:42.042Z,11.87
2017-09-29T12:36:09.562Z,11.70
2017-09-29T12:38:37.042Z,13.03
2017-09-29T12:41:04.512Z,12.03
2017-09-29T12:43:32.030Z,12.87
2017-09-29T12:45:59.495Z,13.40
2017-09-29T12:48:26.982Z,14.57
2017-09-29T12:50:54.444Z,15.23
2017-09-29T12:53:21.908Z,16.40
2017-09-29T12:55:49.377Z,14.30
2017-09-29T12:58:17.606Z,15.53
2017-09-29T13:00:45.065Z,15.23
2017-09-29T13:03:12.531Z,15.37
2017-09-29T13:05:39.997Z,16.07
2017-09-29T13:08:07.490Z,17.13
2017-09-29T13:10:34.967Z,16.20
2017-09-29T13:13:02.489Z,15.43
2017-09-29T13:15:29.945Z,14.73
2017-09-29T13:17:58.175Z,15.87
2017-09-29T13:20:25.642Z,14.70
2017-09-29T13:22:53.117Z,16.37
2017-09-29T13:25:20.596Z,15.10
2017-09-29T13:27:48.057Z,15.70
2017-09-29T13:30:15.523Z,15.10
2017-09-29T13:32:42.986Z,14.83
2017-09-29T13:35:10.502Z,15.33
2017-09-29T13:37:38.058Z,15.10
2017-09-29T13:40:05.618Z,15.10
2017-09-29T13:42:33.082Z,14.07
2017-09-29T13:45:00.673Z,14.70
2017-09-29T13:47:29.685Z,15.13
2017-09-29T13:49:57.178Z,16.57
2017-09-29T13:52:24.755Z,17.80
2017-09-29T13:54:52.215Z,16.57
2017-09-29T13:57:19.684Z,17.70
2017-09-29T13:59:47.230Z,16.20
2017-09-29T14:02:14.786Z,17.00
2017-09-29T14:04:42.243Z,14.40
2017-09-29T14:07:09.719Z,15.23
2017-09-29T14:09:37.190Z,14.60
2017-09-29T14:12:05.433Z,14.83
2017-09-29T14:14:32.914Z,14.60
2017-09-29T14:17:00.378Z,15.40
2017-09-29T14:19:28.606Z,15.00
2017-09-29T14:21:56.089Z,15.43
2017-09-29T14:24:23.679Z,15.03
2017-09-29T14:26:52.133Z,15.60
2017-09-29T14:29:19.610Z,15.00
2017-09-29T14:31:47.857Z,13.30
2017-09-29T14:34:15.405Z,13.67
2017-09-29T14:36:42.918Z,14.90
2017-09-29T14:39:10.375Z,14.37
2017-09-29T14:41:37.899Z,14.27
2017-09-29T14:44:05.357Z,13.47
2017-09-29T14:46:32.837Z,13.17
2017-09-29T14:49:01.093Z,13.20
2017-09-29T14:51:28.568Z,13.10
2017-09-29T14:53:56.794Z,13.90
2017-09-29T14:56:24.291Z,12.77
2017-09-29T14:58:51.742Z,12.90
2017-09-29T15:01:19.292Z,11.53
2017-09-29T15:03:46.774Z,12.20
2017-09-29T15:06:15.014Z,11.70
2017-09-29T15:08:42.500Z,14.53
2017-09-29T15:11:10.735Z,14.40
2017-09-29T15:13:38.197Z,14.30
2017-09-29T15:16:05.664Z,13.30
2017-09-29T15:18:33.233Z,13.50
2017-09-29T15:21:00.786Z,13.43
2017-09-29T15:23:28.307Z,14.83
2017-09-29T15:25:55.759Z,14.80
2017-09-29T15:28:23.301Z,15.53
2017-09-29T15:30:50.837Z,16.10
2017-09-29T15:33:19.068Z,15.77
2017-09-29T15:35:46.553Z,16.67
2017-09-29T15:38:14.011Z,16.63
2017-09-29T15:40:41.576Z,17.10
2017-09-29T15:43:09.037Z,17.93
2017-09-29T15:45:36.495Z,17.50
2017-09-29T15:48:04.041Z,18.20
2017-09-29T15:50:31.564Z,19.60
2017-09-29T15:52:59.274Z,19.77
2017-09-29T15:55:26.829Z,19.17
2017-09-29T15:57:54.384Z,19.40
2017-09-29T16:00:21.846Z,18.73
2017-09-29T16:02:49.313Z,19.43
2017-09-29T16:05:16.859Z,20.40
2017-09-29T16:07:44.327Z,18.53
2017-09-29T16:10:11.891Z,18.73
2017-09-29T16:12:39.456Z,19.50
2017-09-29T16:15:07.698Z,20.30
2017-09-29T16:17:35.159Z,19.73
2017-09-29T16:20:02.736Z,17.77
2017-09-29T16:22:30.198Z,20.17
2017-09-29T16:24:57.654Z,18.40
2017-09-29T16:27:25.123Z,17.10
2017-09-29T16:29:53.388Z,19.20
2017-09-29T16:32:20.853Z,19.33
2017-09-29T16:34:49.089Z,20.07
2017-09-29T16:37:16.555Z,19.40
2017-09-29T16:39:44.111Z,18.27
2017-09-29T16:42:11.588Z,18.93
2017-09-29T16:44:39.044Z,19.33
2017-09-29T16:47:06.603Z,20.10
2017-09-29T16:49:34.158Z,18.90
2017-09-29T16:52:01.654Z,18.40
2017-09-29T16:54:29.957Z,21.90
2017-09-29T16:56:57.411Z,19.83
2017-09-29T16:59:24.907Z,22.63
2017-09-29T17:01:52.944Z,21.77
2017-09-29T17:04:20.442Z,21.10
2017-09-29T17:06:47.905Z,22.17
2017-09-29T17:09:15.357Z,23.23
2017-09-29T17:11:42.910Z,24.30
2017-09-29T17:14:10.372Z,22.37
2017-09-29T17:16:37.944Z,23.60
2017-09-29T17:19:05.434Z,22.50
2017-09-29T17:21:33.019Z,22.80
2017-09-29T17:24:00.470Z,23.37
2017-09-29T17:26:27.963Z,23.65
2017-09-29T17:28:55.483Z,24.50
2017-09-29T17:31:23.002Z,24.50
2017-09-29T17:33:51.250Z,24.90
2017-09-29T17:36:18.712Z,25.10
2017-09-29T17:38:46.258Z,24.90
2017-09-29T17:41:13.808Z,26.57
2017-09-29T17:43:41.268Z,23.93
2017-09-29T17:46:08.745Z,24.03
2017-09-29T17:48:36.279Z,24.90
2017-09-29T17:51:03.827Z,26.20
2017-09-29T17:53:31.283Z,24.77
2017-09-29T17:55:58.752Z,25.70
2017-09-29T17:58:26.232Z,25.40
2017-09-29T18:00:53.809Z,25.90
2017-09-29T18:03:21.273Z,22.00
2017-09-29T18:05:49.529Z,23.60
2017-09-29T18:08:17.807Z,23.50
2017-09-29T18:10:45.281Z,23.30
2017-09-29T18:13:13.546Z,26.23
2017-09-29T18:15:41.013Z,27.13
2017-09-29T18:18:08.583Z,25.90
2017-09-29T18:20:37.330Z,27.23
2017-09-29T18:23:04.797Z,27.05
2017-09-29T18:25:32.317Z,28.37
2017-09-29T18:27:59.820Z,26.73
2017-09-29T18:30:27.344Z,25.60
2017-09-29T18:32:54.809Z,26.12
2017-09-29T18:35:22.274Z,26.97
2017-09-29T18:37:49.738Z,26.40
2017-09-29T18:40:17.219Z,27.50
2017-09-29T18:42:46.673Z,28.50
2017-09-29T18:45:15.963Z,26.80
2017-09-29T18:47:43.438Z,28.57
2017-09-29T18:50:10.926Z,27.87
2017-09-29T18:52:38.390Z,28.53
2017-09-29T18:55:05.862Z,27.97
2017-09-29T18:57:34.095Z,30.13
2017-09-29T19:00:01.563Z,29.27
2017-09-29T19:02:29.037Z,26.07
2017-09-29T19:04:56.510Z,25.43
2017-09-29T19:07:23.974Z,27.80
2017-09-29T19:09:52.241Z,27.90
2017-09-29T19:12:19.802Z,29.70
2017-09-29T19:14:47.261Z,25.20
2017-09-29T19:17:14.730Z,27.13
2017-09-29T19:19:42.971Z,28.33
2017-09-29T19:22:10.536Z,27.30
2017-09-29T19:24:38.102Z,26.77
2017-09-29T19:27:05.566Z,28.20
2017-09-29T19:29:33.107Z,28.43
2017-09-29T19:32:00.682Z,28.03
2017-09-29T19:34:30.310Z,27.87
2017-09-29T19:36:57.839Z,30.98
2017-09-29T19:39:25.464Z,27.17
2017-09-29T19:41:52.943Z,29.17
2017-09-29T19:44:20.518Z,28.57
2017-09-29T19:46:47.994Z,29.95
2017-09-29T19:49:15.538Z,29.83
2017-09-29T19:51:43.059Z,30.07
2017-09-29T19:54:10.625Z,29.30
2017-09-29T19:56:38.930Z,30.20
2017-09-29T19:59:07.171Z,29.30
2017-09-29T20:01:34.730Z,29.20
2017-09-29T20:04:02.202Z,28.27
2017-09-29T20:06:30.521Z,29.08
2017-09-29T20:08:58.117Z,30.07
2017-09-29T20:11:25.569Z,31.43
2017-09-29T20:13:53.090Z,30.50
2017-09-29T20:16:20.547Z,33.10
2017-09-29T20:18:48.359Z,29.67
2017-09-29T20:21:15.835Z,30.70
2017-09-29T20:23:43.359Z,30.08
2017-09-29T20:26:11.582Z,32.30
2017-09-29T20:28:39.038Z,30.80
2017-09-29T20:31:06.613Z,32.03
2017-09-29T20:33:34.078Z,31.10
2017-09-29T20:36:01.655Z,31.83
2017-09-29T20:38:29.907Z,33.80
2017-09-29T20:40:57.390Z,32.80
2017-09-29T20:43:25.631Z,31.30
2017-09-29T20:45:53.119Z,32.80
2017-09-29T20:48:21.436Z,32.20
2017-09-29T20:50:48.926Z,33.85
2017-09-29T20:53:16.394Z,32.93
2017-09-29T20:55:44.408Z,34.75
2017-09-29T20:58:11.982Z,32.63
2017-09-29T21:00:39.464Z,31.60
2017-09-29T21:03:06.931Z,32.33
2017-09-29T21:05:34.386Z,33.40
2017-09-29T21:08:02.680Z,33.08
2017-09-29T21:10:30.198Z,32.95
2017-09-29T21:12:57.749Z,32.70
2017-09-29T21:15:25.249Z,33.80
2017-09-29T21:17:52.803Z,33.60
2017-09-29T21:20:21.384Z,34.38
2017-09-29T21:22:48.857Z,33.25
2017-09-29T21:25:16.366Z,33.75
2017-09-29T21:27:43.859Z,34.17
2017-09-29T21:30:11.437Z,33.75
2017-09-29T21:32:39.691Z,32.67
2017-09-29T21:35:07.203Z,33.60
2017-09-29T21:37:34.719Z,33.38
2017-09-29T21:40:02.273Z,35.50
2017-09-29T21:42:39.767Z,33.63
2017-09-29T21:45:07.242Z,33.83
2017-09-29T21:47:35.582Z,34.75
2017-09-29T21:50:03.323Z,34.97
2017-09-29T21:52:31.697Z,35.67
2017-09-29T21:54:59.198Z,35.42
2017-09-29T21:57:26.749Z,34.22
2017-09-29T21:59:54.213Z,34.95
2017-09-29T22:02:32.428Z,34.35
2017-09-29T22:04:59.953Z,34.92
2017-09-29T22:07:27.469Z,34.50
2017-09-29T22:09:55.826Z,34.05
2017-09-29T22:12:23.405Z,31.80
2017-09-29T22:14:51.730Z,31.23
2017-09-29T22:17:19.192Z,34.70
2017-09-29T22:19:46.669Z,33.97
2017-09-29T22:22:14.155Z,32.85
2017-09-29T22:24:42.416Z,33.60
2017-09-29T22:27:09.976Z,33.28
2017-09-29T22:29:37.450Z,31.05
2017-09-29T22:32:05.682Z,32.80
2017-09-29T22:34:33.265Z,32.25
2017-09-29T22:37:00.824Z,31.55
2017-09-29T22:39:28.529Z,33.38
2017-09-29T22:41:56.056Z,31.80
2017-09-29T22:44:23.606Z,33.03
2017-09-29T22:46:51.081Z,32.10
2017-09-29T22:49:19.353Z,31.87
2017-09-29T22:51:47.678Z,32.75
2017-09-29T22:54:15.140Z,33.97
2017-09-29T22:56:42.615Z,30.58
2017-09-29T22:59:10.094Z,31.25
2017-09-29T23:01:37.558Z,32.80
2017-09-29T23:04:05.127Z,32.85
2017-09-29T23:06:33.390Z,32.53
2017-09-29T23:09:00.853Z,34.90
2017-09-29T23:11:29.919Z,33.50
2017-09-29T23:13:57.388Z,34.10
2017-09-29T23:16:24.971Z,32.67
2017-09-29T23:18:52.579Z,32.67
2017-09-29T23:21:20.093Z,32.20
2017-09-29T23:23:47.561Z,32.15
2017-09-29T23:26:15.866Z,32.00
2017-09-29T23:28:43.361Z,32.72
2017-09-29T23:31:10.929Z,31.05
2017-09-29T23:33:38.489Z,30.88
2017-09-29T23:36:05.964Z,32.10
2017-09-29T23:38:33.424Z,28.87
2017-09-29T23:41:01.767Z,31.45
2017-09-29T23:43:29.320Z,30.08
2017-09-29T23:45:56.829Z,31.75
2017-09-29T23:48:24.350Z,31.00
2017-09-29T23:50:51.873Z,32.38
2017-09-29T23:53:19.444Z,31.65
2017-09-29T23:55:46.900Z,31.52
2017-09-29T23:58:14.412Z,30.67
